Terminal Aerodrome Forecast
Issued by NWS Jackson, MS

Home | Current Version | Previous Version | Text Only | Print | Product List | Glossary On
Versions: 1 2 3 4 5 6 7 8 9 10 11 12 13 14 15
000
FTUS44 KJAN 291129
TAFGWO
TAF
KGWO 291129Z 2912/3012 17007KT P6SM BKN008
     FM291500 17008KT P6SM SCT015
     FM292000 18006KT P6SM VCTS BKN040CB
     FM300300 17006KT P6SM OVC100
     FM300900 18005KT P6SM OVC015=

USA.gov is the U.S. government's official web portal to all federal, state and local government web resources and services.